Time;durP1;ratioP1;P1;durP2;ratioP2;P2;SDS_P1;SDS_P2;PMS_P1;PMS_P2;Temp;Humidity;BMP_temperature;BMP_pressure;BME280_temperature;BME280_humidity;BME280_pressure;Samples;Min_cycle;Max_cycle;Signal;HPM_P1;HPM_P2
2023/01/01 00:01:07;;;;;;;13.57;8.20;;;14.10;99.90;;;;;;4911425;29;20034;-85
2023/01/01 00:03:34;;;;;;;13.98;7.95;;;14.10;99.90;;;;;;4893108;29;20056;-86
2023/01/01 00:06:05;;;;;;;18.13;8.25;;;14.00;99.90;;;;;;4899868;29;20095;-91
2023/01/01 00:08:30;;;;;;;13.23;7.20;;;14.00;99.90;;;;;;4911774;29;20449;-91
2023/01/01 00:11:00;;;;;;;16.33;7.93;;;14.00;99.90;;;;;;4914477;29;20087;-90
2023/01/01 00:13:26;;;;;;;15.63;7.53;;;14.00;99.90;;;;;;4901875;29;20027;-88
2023/01/01 00:15:52;;;;;;;15.43;7.70;;;14.00;99.90;;;;;;4894973;29;20447;-90
2023/01/01 00:18:18;;;;;;;13.20;6.60;;;14.10;99.90;;;;;;4879225;29;20051;-84
2023/01/01 00:20:43;;;;;;;13.98;6.95;;;14.10;99.90;;;;;;4871079;29;20232;-88
2023/01/01 00:23:09;;;;;;;15.55;5.82;;;14.10;99.90;;;;;;4914442;29;20043;-86
2023/01/01 00:25:35;;;;;;;14.18;6.38;;;14.00;99.90;;;;;;4881071;29;20040;-86
2023/01/01 00:28:01;;;;;;;15.88;6.47;;;14.60;99.90;;;;;;4909913;29;20044;-86
2023/01/01 00:30:27;;;;;;;13.98;6.00;;;13.90;99.90;;;;;;4887905;29;20036;-86
2023/01/01 00:32:53;;;;;;;13.45;7.95;;;13.90;99.90;;;;;;4896338;29;20040;-86
2023/01/01 00:35:19;;;;;;;17.63;8.73;;;13.90;99.90;;;;;;4869991;29;20412;-86
2023/01/01 00:37:45;;;;;;;15.80;7.50;;;13.90;99.90;;;;;;4874300;29;20087;-86
2023/01/01 00:40:11;;;;;;;16.25;7.55;;;13.80;99.90;;;;;;4896365;29;20068;-88
2023/01/01 00:42:40;;;;;;;16.88;7.55;;;13.80;99.90;;;;;;4889984;29;20455;-87
2023/01/01 00:45:07;;;;;;;16.02;7.80;;;13.80;99.90;;;;;;4886130;29;20508;-87
2023/01/01 00:47:32;;;;;;;17.08;8.70;;;13.70;99.90;;;;;;4888292;29;20051;-87
2023/01/01 00:49:58;;;;;;;17.65;8.20;;;13.70;99.90;;;;;;4887728;29;20048;-87
2023/01/01 00:52:24;;;;;;;15.13;8.55;;;13.70;99.90;;;;;;4870148;29;20458;-87
2023/01/01 00:54:49;;;;;;;14.85;8.10;;;13.70;99.90;;;;;;4891920;29;20040;-87
2023/01/01 00:57:15;;;;;;;21.42;9.63;;;13.70;99.90;;;;;;4856654;29;20489;-87
2023/01/01 00:59:41;;;;;;;17.40;8.93;;;13.70;99.90;;;;;;4881019;29;20504;-87
2023/01/01 01:02:07;;;;;;;24.05;11.23;;;13.70;99.90;;;;;;4871850;29;20430;-87
2023/01/01 01:04:32;;;;;;;18.23;10.70;;;13.70;99.90;;;;;;4887298;29;20079;-87
2023/01/01 01:06:58;;;;;;;20.27;12.10;;;13.70;99.90;;;;;;4880927;29;20036;-87
2023/01/01 01:09:24;;;;;;;26.27;11.65;;;13.20;99.90;;;;;;4889404;29;20123;-87
2023/01/01 01:11:50;;;;;;;26.08;13.43;;;13.70;99.90;;;;;;4871829;29;20127;-87
2023/01/01 01:14:15;;;;;;;25.20;14.10;;;13.60;99.90;;;;;;4884419;29;20056;-87
2023/01/01 01:16:41;;;;;;;23.40;13.02;;;13.60;99.90;;;;;;4886040;29;20036;-89
2023/01/01 01:19:12;;;;;;;27.25;15.20;;;13.50;99.90;;;;;;4892305;29;20086;-86
2023/01/01 01:21:38;;;;;;;27.40;14.77;;;13.50;99.90;;;;;;4872431;29;20040;-88
2023/01/01 01:24:04;;;;;;;23.27;13.30;;;13.40;99.90;;;;;;4877402;29;20048;-88
2023/01/01 01:26:32;;;;;;;27.20;14.68;;;13.40;99.90;;;;;;4888653;29;20044;-87
2023/01/01 01:28:59;;;;;;;26.63;15.63;;;13.40;99.90;;;;;;4892739;29;20044;-88
2023/01/01 01:31:28;;;;;;;34.22;18.02;;;13.40;99.90;;;;;;4913427;29;20454;-88
2023/01/01 01:33:54;;;;;;;32.30;19.13;;;13.30;99.90;;;;;;4900400;29;20039;-87
2023/01/01 01:36:20;;;;;;;29.10;16.35;;;13.20;99.90;;;;;;4909553;29;20032;-88
2023/01/01 01:38:46;;;;;;;31.40;18.48;;;13.10;99.90;;;;;;4872943;29;20035;-88
2023/01/01 01:41:13;;;;;;;36.35;18.20;;;13.10;99.90;;;;;;4884100;29;20154;-86
2023/01/01 01:43:39;;;;;;;33.92;20.85;;;13.10;99.90;;;;;;4901050;29;20028;-86
2023/01/01 01:46:07;;;;;;;36.23;19.80;;;13.00;99.90;;;;;;4898083;29;20127;-87
2023/01/01 01:48:39;;;;;;;33.90;18.38;;;12.90;99.90;;;;;;4897438;29;20867;-87
2023/01/01 01:51:06;;;;;;;37.70;21.17;;;13.00;99.90;;;;;;4892506;29;20039;-86
2023/01/01 01:53:40;;;;;;;32.97;22.00;;;12.90;99.90;;;;;;4887279;29;20110;-87
2023/01/01 01:56:11;;;;;;;36.90;22.90;;;12.90;99.90;;;;;;4899114;29;20481;-85
2023/01/01 01:58:36;;;;;;;41.75;25.58;;;12.90;99.90;;;;;;4906927;29;20040;-85
2023/01/01 02:01:02;;;;;;;48.53;25.77;;;12.90;99.90;;;;;;4890092;29;20050;-85
2023/01/01 02:03:58;;;;;;;41.55;24.83;;;12.80;99.90;;;;;;4881677;29;20086;-85
2023/01/01 02:06:29;;;;;;;46.58;29.08;;;12.70;99.90;;;;;;4903104;29;20055;-85
2023/01/01 02:08:57;;;;;;;46.55;29.50;;;12.60;99.90;;;;;;4893165;29;20296;-85
2023/01/01 02:11:24;;;;;;;48.88;28.85;;;12.50;99.90;;;;;;4882771;29;20062;-84
2023/01/01 02:13:50;;;;;;;;;;;12.40;99.90;;;;;;4893792;29;20048;-84
2023/01/01 02:16:38;;;;;;;43.45;25.75;;;13.40;99.90;;;;;;4900459;29;19982;-85
2023/01/01 02:19:22;;;;;;;45.60;26.52;;;12.40;99.90;;;;;;4895722;29;20035;-84
2023/01/01 02:21:53;;;;;;;53.55;30.10;;;12.40;99.90;;;;;;4889290;29;20123;-84
2023/01/01 02:24:24;;;;;;;50.80;31.17;;;12.40;99.90;;;;;;4892098;29;20043;-84
2023/01/01 02:27:04;;;;;;;43.95;28.20;;;12.40;99.90;;;;;;4890320;29;20043;-84
2023/01/01 02:29:43;;;;;;;40.92;25.92;;;12.30;99.90;;;;;;4908998;29;20048;-85
2023/01/01 02:32:28;;;;;;;37.15;23.63;;;12.40;99.90;;;;;;4910327;29;20044;-85
2023/01/01 02:37:58;;;;;;;35.65;19.65;;;12.60;99.90;;;;;;4899185;29;20044;-85
2023/01/01 02:40:25;;;;;;;34.35;20.10;;;12.70;99.90;;;;;;4890045;29;20071;-85
2023/01/01 02:42:54;;;;;;;35.38;20.08;;;12.70;99.90;;;;;;4874889;29;20123;-85
2023/01/01 02:45:21;;;;;;;36.47;18.35;;;12.90;99.90;;;;;;4889165;29;20040;-85
2023/01/01 02:47:46;;;;;;;35.60;18.85;;;12.80;99.90;;;;;;4889466;29;20039;-85
2023/01/01 02:50:21;;;;;;;31.65;18.50;;;12.80;99.90;;;;;;4893364;29;20032;-85
2023/01/01 02:53:13;;;;;;;;;;;12.70;99.90;;;;;;4893328;29;20047;-85
2023/01/01 02:56:14;;;;;;;28.45;15.25;;;12.70;99.90;;;;;;4909102;29;19941;-85
2023/01/01 03:02:07;;;;;;;26.50;14.30;;;12.60;99.90;;;;;;4897023;29;20056;-85
2023/01/01 03:05:01;;;;;;;30.52;13.82;;;12.60;99.90;;;;;;4869987;29;20509;-85
2023/01/01 03:07:58;;;;;;;27.55;14.85;;;12.70;99.90;;;;;;4903522;29;20123;-85
2023/01/01 03:10:48;;;;;;;26.75;14.35;;;12.60;99.90;;;;;;4879372;29;20055;-84
2023/01/01 03:13:26;;;;;;;22.65;11.43;;;12.50;99.90;;;;;;4926219;29;20051;-84
2023/01/01 03:16:28;;;;;;;25.42;13.05;;;12.50;99.90;;;;;;4891724;29;20071;-84
2023/01/01 03:19:09;;;;;;;29.20;14.30;;;12.40;99.90;;;;;;4883676;29;20048;-84
2023/01/01 03:21:48;;;;;;;24.52;13.02;;;12.20;99.90;;;;;;4903832;29;20481;-85
2023/01/01 03:24:23;;;;;;;25.73;13.55;;;12.10;99.90;;;;;;4908700;29;20409;-85
2023/01/01 03:26:53;;;;;;;32.17;13.48;;;12.00;99.90;;;;;;4890960;29;20040;-84
2023/01/01 03:29:21;;;;;;;32.97;16.10;;;11.90;99.90;;;;;;4893613;29;20039;-84
2023/01/01 03:31:49;;;;;;;26.35;15.18;;;11.80;99.90;;;;;;4891157;29;20489;-84
2023/01/01 03:34:21;;;;;;;29.38;14.88;;;11.80;99.90;;;;;;4882103;29;20118;-84
2023/01/01 03:36:52;;;;;;;26.70;14.73;;;11.70;99.90;;;;;;4909310;29;20032;-84
2023/01/01 03:39:37;;;;;;;31.85;13.75;;;11.60;99.90;;;;;;4895261;29;20092;-84
2023/01/01 03:42:26;;;;;;;28.63;14.20;;;11.60;99.90;;;;;;4893543;29;20039;-85
2023/01/01 03:44:57;;;;;;;31.17;13.93;;;11.60;99.90;;;;;;4893386;29;20123;-84
2023/01/01 03:47:23;;;;;;;33.13;13.88;;;11.60;99.90;;;;;;4898298;29;20148;-84
2023/01/01 03:49:49;;;;;;;28.48;12.15;;;11.60;99.90;;;;;;4892824;29;20099;-84
2023/01/01 03:52:26;;;;;;;;;;;11.50;99.90;;;;;;4877853;29;20028;-85
2023/01/01 03:55:01;;;;;;;28.63;12.45;;;11.50;99.90;;;;;;4892301;29;19923;-84
2023/01/01 03:57:49;;;;;;;21.88;10.60;;;11.50;99.90;;;;;;4897707;29;20040;-84
2023/01/01 04:00:21;;;;;;;17.95;9.90;;;11.30;99.90;;;;;;4895059;29;20040;-84
2023/01/01 04:03:07;;;;;;;20.98;8.48;;;11.50;99.90;;;;;;4893087;29;20040;-84
2023/01/01 04:05:36;;;;;;;14.75;7.05;;;11.60;99.90;;;;;;4887672;29;20560;-84
2023/01/01 04:08:03;;;;;;;15.70;6.57;;;11.50;99.90;;;;;;4892766;29;20040;-84
2023/01/01 04:10:32;;;;;;;12.27;5.25;;;11.50;99.90;;;;;;4874673;29;20079;-85
2023/01/01 04:12:58;;;;;;;13.18;5.20;;;11.60;99.90;;;;;;4896804;29;20044;-84
2023/01/01 04:15:26;;;;;;;10.30;4.57;;;11.60;99.90;;;;;;4909972;29;20411;-84
2023/01/01 04:17:53;;;;;;;12.40;4.43;;;11.60;99.90;;;;;;4893560;29;20091;-84
2023/01/01 04:20:20;;;;;;;9.55;3.88;;;11.60;99.90;;;;;;4896327;29;20413;-85
2023/01/01 04:22:46;;;;;;;11.93;5.28;;;11.60;99.90;;;;;;4892397;29;20122;-85
2023/01/01 04:25:12;;;;;;;10.25;4.75;;;11.70;99.90;;;;;;4882217;29;20095;-85
2023/01/01 04:27:39;;;;;;;12.52;4.30;;;11.70;99.90;;;;;;4897135;29;20043;-84
2023/01/01 04:30:08;;;;;;;22.85;4.15;;;11.80;99.90;;;;;;4902869;29;20047;-84
2023/01/01 04:32:34;;;;;;;11.88;3.40;;;11.80;99.90;;;;;;4885160;29;20048;-84
2023/01/01 04:35:00;;;;;;;16.35;4.25;;;11.70;99.90;;;;;;4878862;29;20052;-84
2023/01/01 04:37:26;;;;;;;9.75;3.60;;;11.80;99.90;;;;;;4873390;29;20119;-84
2023/01/01 04:39:52;;;;;;;10.95;3.78;;;11.70;99.90;;;;;;4886946;29;20119;-84
2023/01/01 04:42:18;;;;;;;18.40;5.18;;;11.70;99.90;;;;;;4888543;29;20055;-84
2023/01/01 04:44:43;;;;;;;11.55;4.28;;;11.70;99.90;;;;;;4888199;29;20043;-84
2023/01/01 04:47:09;;;;;;;22.35;6.13;;;11.70;99.90;;;;;;4887906;29;20099;-84
2023/01/01 04:49:35;;;;;;;17.45;4.70;;;11.60;99.90;;;;;;4870299;29;20132;-84
2023/01/01 04:52:01;;;;;;;12.73;4.28;;;11.70;99.90;;;;;;4869747;29;20043;-84
2023/01/01 04:54:27;;;;;;;11.23;4.05;;;11.70;99.90;;;;;;4884743;29;20040;-84
2023/01/01 04:56:53;;;;;;;17.90;4.43;;;11.80;99.90;;;;;;4890453;29;20035;-84
2023/01/01 04:59:18;;;;;;;8.48;3.15;;;11.80;99.90;;;;;;4891820;29;20406;-84
2023/01/01 05:01:44;;;;;;;10.40;4.25;;;11.80;99.90;;;;;;4869624;29;20040;-84
2023/01/01 05:04:13;;;;;;;13.52;3.90;;;11.70;99.90;;;;;;4885121;29;20160;-84
2023/01/01 05:06:39;;;;;;;10.07;3.38;;;11.70;99.90;;;;;;4895375;29;20512;-84
2023/01/01 05:09:05;;;;;;;9.38;3.00;;;11.80;99.90;;;;;;4886777;29;20036;-84
2023/01/01 05:11:31;;;;;;;11.68;3.42;;;11.80;99.90;;;;;;4891471;29;20054;-84
2023/01/01 05:13:58;;;;;;;6.68;3.15;;;11.80;99.90;;;;;;4875494;29;20041;-84
2023/01/01 05:16:31;;;;;;;10.18;2.67;;;11.80;99.90;;;;;;4877807;29;20040;-84
2023/01/01 05:18:57;;;;;;;8.45;2.33;;;11.80;99.90;;;;;;4891636;29;20035;-84
2023/01/01 05:21:30;;;;;;;8.48;2.40;;;11.80;99.90;;;;;;4892123;29;20046;-84
2023/01/01 05:23:59;;;;;;;10.07;2.97;;;11.80;99.90;;;;;;4896124;29;20036;-84
2023/01/01 05:26:27;;;;;;;11.15;3.15;;;11.80;99.90;;;;;;4896342;29;20072;-84
2023/01/01 05:28:53;;;;;;;7.13;2.58;;;11.70;99.90;;;;;;4888657;29;20044;-84
2023/01/01 05:31:21;;;;;;;12.65;2.83;;;11.70;99.90;;;;;;4900476;29;20048;-84
2023/01/01 05:33:48;;;;;;;9.90;2.72;;;11.70;99.90;;;;;;4883922;29;20063;-84
2023/01/01 05:36:23;;;;;;;8.43;2.65;;;11.80;99.90;;;;;;4890285;29;20080;-85
2023/01/01 05:38:49;;;;;;;11.73;3.55;;;11.80;99.90;;;;;;4887899;29;20060;-85
2023/01/01 05:41:17;;;;;;;9.15;2.55;;;11.80;99.90;;;;;;4873647;29;20067;-85
2023/01/01 05:43:43;;;;;;;8.75;2.97;;;11.80;99.90;;;;;;4883243;29;20040;-85
2023/01/01 05:46:24;;;;;;;8.52;2.03;;;11.80;99.90;;;;;;4891139;29;20039;-85
2023/01/01 05:48:52;;;;;;;10.43;3.47;;;11.80;99.90;;;;;;4872385;29;20040;-84
2023/01/01 05:51:23;;;;;;;6.97;1.85;;;11.80;99.90;;;;;;4876847;29;20141;-85
2023/01/01 05:53:49;;;;;;;8.93;2.20;;;11.90;99.90;;;;;;4890965;29;20058;-85
2023/01/01 05:56:15;;;;;;;5.57;1.67;;;11.80;99.90;;;;;;4898738;29;20150;-85
2023/01/01 05:58:42;;;;;;;6.75;1.83;;;11.90;99.90;;;;;;4886654;29;20039;-85
2023/01/01 06:01:29;;;;;;;5.32;1.60;;;12.00;99.90;;;;;;4890203;29;20126;-84
2023/01/01 06:03:56;;;;;;;8.03;1.47;;;12.00;99.90;;;;;;4893263;29;20393;-84
2023/01/01 06:06:28;;;;;;;7.07;1.30;;;12.00;99.90;;;;;;4905748;29;20295;-84
2023/01/01 06:09:03;;;;;;;5.53;1.30;;;11.90;99.90;;;;;;4893251;29;20111;-85
2023/01/01 06:11:30;;;;;;;5.85;1.70;;;11.90;99.90;;;;;;4901418;29;20052;-85
2023/01/01 06:13:58;;;;;;;5.00;1.33;;;11.90;99.90;;;;;;4889092;29;20115;-85
2023/01/01 06:16:25;;;;;;;5.85;1.55;;;11.90;99.90;;;;;;4889161;29;20050;-85
2023/01/01 06:18:51;;;;;;;8.70;1.30;;;11.80;99.90;;;;;;4883227;29;20040;-85
2023/01/01 06:21:19;;;;;;;8.20;1.40;;;11.90;99.90;;;;;;4899348;29;20043;-85
2023/01/01 06:23:45;;;;;;;4.15;1.10;;;11.90;99.90;;;;;;4890937;29;20048;-84
2023/01/01 06:26:18;;;;;;;7.00;1.23;;;11.80;99.90;;;;;;4886266;29;20062;-85
2023/01/01 06:28:45;;;;;;;3.80;1.13;;;11.80;99.90;;;;;;4894672;29;20075;-86
2023/01/01 06:31:13;;;;;;;7.32;1.08;;;11.60;99.90;;;;;;4885307;29;20051;-85
2023/01/01 06:33:40;;;;;;;5.90;1.20;;;11.60;99.90;;;;;;4905049;29;20103;-85
2023/01/01 06:36:08;;;;;;;4.80;1.17;;;11.70;99.90;;;;;;4895821;29;20036;-85
2023/01/01 06:38:36;;;;;;;5.03;0.85;;;11.70;99.90;;;;;;4898216;29;20044;-85
2023/01/01 06:41:04;;;;;;;5.18;1.13;;;11.70;99.90;;;;;;4895768;29;20035;-85
2023/01/01 06:43:31;;;;;;;3.67;0.80;;;11.60;99.90;;;;;;4891803;29;20040;-85
2023/01/01 06:46:14;;;;;;;6.43;1.20;;;11.70;99.90;;;;;;4876598;29;20127;-85
2023/01/01 06:48:40;;;;;;;10.00;1.40;;;11.60;99.90;;;;;;4895354;29;20119;-86
2023/01/01 06:51:08;;;;;;;4.83;1.10;;;11.60;99.90;;;;;;4880123;29;20082;-85
2023/01/01 06:53:35;;;;;;;8.18;1.52;;;11.70;99.90;;;;;;4895839;29;20316;-85
2023/01/01 06:56:01;;;;;;;6.97;1.48;;;11.70;99.90;;;;;;4878563;29;20036;-85
2023/01/01 06:58:27;;;;;;;5.78;1.20;;;11.60;99.90;;;;;;4877744;29;20123;-85
2023/01/01 07:00:52;;;;;;;6.55;0.95;;;11.60;99.90;;;;;;4888362;29;20059;-85
2023/01/01 07:03:18;;;;;;;8.43;1.27;;;11.60;99.90;;;;;;4869121;29;20149;-85
2023/01/01 07:05:44;;;;;;;8.07;1.17;;;11.60;99.90;;;;;;4890519;29;20128;-85
2023/01/01 07:08:09;;;;;;;10.60;1.92;;;11.60;99.90;;;;;;4869368;29;20417;-86
2023/01/01 07:10:35;;;;;;;6.43;1.37;;;11.50;99.90;;;;;;4890402;29;20058;-86
2023/01/01 07:13:01;;;;;;;7.55;1.90;;;11.50;99.90;;;;;;4884940;29;20319;-86
2023/01/01 07:15:27;;;;;;;8.88;1.55;;;11.50;99.90;;;;;;4887034;29;20108;-86
2023/01/01 07:17:52;;;;;;;7.32;1.70;;;11.50;99.90;;;;;;4901372;29;20043;-86
2023/01/01 07:20:18;;;;;;;11.48;1.75;;;11.40;99.90;;;;;;4912476;29;20086;-86
2023/01/01 07:22:44;;;;;;;7.72;2.00;;;11.50;99.90;;;;;;4889835;29;20091;-86
2023/01/01 07:25:14;;;;;;;10.45;1.85;;;11.40;99.90;;;;;;4871463;29;20477;-86
2023/01/01 07:27:40;;;;;;;8.00;2.00;;;11.40;99.90;;;;;;4888993;29;20043;-86
2023/01/01 07:30:06;;;;;;;10.63;2.00;;;11.50;99.90;;;;;;4894842;29;20036;-86
2023/01/01 07:32:32;;;;;;;9.00;1.70;;;11.40;99.90;;;;;;4872775;29;20040;-86
2023/01/01 07:34:57;;;;;;;11.30;1.58;;;11.40;99.90;;;;;;4872740;29;20111;-86
2023/01/01 07:37:26;;;;;;;15.88;1.92;;;11.40;99.90;;;;;;4871270;29;20048;-86
2023/01/01 07:39:52;;;;;;;11.75;1.98;;;11.40;99.90;;;;;;4888785;29;20103;-85
2023/01/01 07:42:18;;;;;;;12.38;1.75;;;11.40;99.90;;;;;;4871035;29;20044;-86
2023/01/01 07:44:43;;;;;;;15.27;2.40;;;11.40;99.90;;;;;;4893488;29;20035;-86
2023/01/01 07:47:23;;;;;;;12.32;1.75;;;11.40;99.90;;;;;;4898105;29;20046;-86
2023/01/01 07:49:50;;;;;;;12.77;1.98;;;11.40;99.90;;;;;;4881430;29;20048;-86
2023/01/01 07:52:15;;;;;;;;;;;11.30;99.90;;;;;;4900093;29;20063;-85
2023/01/01 07:54:41;;;;;;;13.05;2.03;;;11.30;99.90;;;;;;4886248;29;19919;-86
2023/01/01 07:57:07;;;;;;;11.35;1.67;;;11.30;99.90;;;;;;4870439;29;20135;-86
2023/01/01 07:59:33;;;;;;;15.07;2.30;;;11.30;99.90;;;;;;4887084;29;20559;-86
2023/01/01 08:01:59;;;;;;;7.60;1.98;;;11.30;99.90;;;;;;4910022;29;20291;-86
2023/01/01 08:04:25;;;;;;;11.68;1.70;;;11.20;99.90;;;;;;4870855;29;20127;-86
2023/01/01 08:06:52;;;;;;;11.77;2.20;;;11.20;99.90;;;;;;4891633;29;20107;-86
2023/01/01 08:09:18;;;;;;;14.45;2.78;;;11.20;99.90;;;;;;4893450;29;20043;-86
2023/01/01 08:11:44;;;;;;;10.95;2.83;;;11.20;99.90;;;;;;4886670;29;20052;-87
2023/01/01 08:14:10;;;;;;;13.93;2.00;;;11.20;99.90;;;;;;4887523;29;20036;-87
2023/01/01 08:16:36;;;;;;;18.95;2.15;;;11.20;99.90;;;;;;4896455;29;20408;-87
2023/01/01 08:19:02;;;;;;;12.68;2.33;;;11.10;99.90;;;;;;4876088;29;20033;-86
2023/01/01 08:21:27;;;;;;;13.02;2.00;;;11.10;99.90;;;;;;4896918;29;20075;-86
2023/01/01 08:23:53;;;;;;;13.48;2.08;;;11.10;99.90;;;;;;4871523;29;20079;-86
2023/01/01 08:26:36;;;;;;;16.50;2.67;;;11.10;99.90;;;;;;4879457;29;20039;-88
2023/01/01 08:29:03;;;;;;;14.73;1.90;;;11.10;99.90;;;;;;4896258;29;20667;-86
2023/01/01 08:31:29;;;;;;;12.80;2.42;;;11.10;99.90;;;;;;4892359;29;20398;-89
2023/01/01 08:33:55;;;;;;;14.38;2.40;;;11.10;99.90;;;;;;4888895;29;20043;-93
2023/01/01 08:36:21;;;;;;;10.57;2.45;;;11.10;99.90;;;;;;4872220;29;20129;-91
2023/01/01 08:38:46;;;;;;;16.05;2.88;;;11.10;99.90;;;;;;4889071;29;20104;-91
2023/01/01 08:41:12;;;;;;;18.23;2.55;;;11.10;99.90;;;;;;4872492;29;20071;-94
2023/01/01 08:43:38;;;;;;;13.45;2.20;;;11.10;99.90;;;;;;4878727;29;20083;-87
2023/01/01 08:46:04;;;;;;;14.23;2.17;;;11.10;99.90;;;;;;4880605;29;20103;-93
2023/01/01 08:48:30;;;;;;;15.68;3.20;;;11.10;99.90;;;;;;4887590;29;20048;-93
2023/01/01 08:51:00;;;;;;;13.30;2.00;;;11.00;99.90;;;;;;4888205;29;20039;-93
2023/01/01 08:53:27;;;;;;;13.20;2.25;;;11.00;99.90;;;;;;4890882;29;20043;-88
2023/01/01 08:56:20;;;;;;;15.85;3.30;;;11.00;99.90;;;;;;4907410;29;20044;-90
2023/01/01 08:58:45;;;;;;;13.07;2.75;;;11.00;99.90;;;;;;4897127;29;20096;-91
2023/01/01 09:01:11;;;;;;;15.45;2.42;;;10.90;99.90;;;;;;4893553;29;20449;-92
2023/01/01 09:03:37;;;;;;;12.73;2.72;;;11.00;99.90;;;;;;4886041;29;20039;-91
2023/01/01 09:06:03;;;;;;;15.90;1.85;;;11.00;99.90;;;;;;4883510;29;20067;-91
2023/01/01 09:08:28;;;;;;;24.15;3.10;;;11.10;99.90;;;;;;4894782;29;20493;-88
2023/01/01 09:11:01;;;;;;;13.70;2.10;;;11.10;99.90;;;;;;4875540;29;20079;-91
2023/01/01 09:13:28;;;;;;;18.85;2.47;;;11.10;99.90;;;;;;4901289;29;20292;-88
2023/01/01 09:15:54;;;;;;;16.05;2.85;;;11.10;99.90;;;;;;4897433;29;20044;-87
2023/01/01 09:18:19;;;;;;;15.38;2.47;;;11.10;99.90;;;;;;4897218;29;20495;-88
2023/01/01 09:20:45;;;;;;;12.93;2.28;;;11.10;99.90;;;;;;4874787;29;20036;-87
2023/01/01 09:23:15;;;;;;;13.52;1.95;;;11.10;99.90;;;;;;4906843;29;20036;-92
2023/01/01 09:25:41;;;;;;;14.27;2.20;;;11.10;99.90;;;;;;4903252;29;20118;-93
2023/01/01 09:28:09;;;;;;;13.77;2.60;;;11.20;99.90;;;;;;4880508;29;20044;-90
2023/01/01 09:30:36;;;;;;;13.52;2.40;;;11.10;99.90;;;;;;4894206;29;20103;-92
2023/01/01 09:33:03;;;;;;;19.48;2.35;;;11.20;99.90;;;;;;4894322;29;20048;-90
2023/01/01 09:35:29;;;;;;;13.65;1.83;;;11.20;99.90;;;;;;4895968;29;20518;-92
2023/01/01 09:37:55;;;;;;;15.32;2.40;;;11.20;99.90;;;;;;4899064;29;20113;-93
2023/01/01 09:40:38;;;;;;;10.50;2.17;;;11.20;99.90;;;;;;4873561;29;20048;-92
2023/01/01 09:43:38;;;;;;;13.68;2.92;;;11.20;99.90;;;;;;4897836;29;20122;-89
2023/01/01 09:46:06;;;;;;;17.80;2.38;;;11.30;99.90;;;;;;4895592;29;20488;-92
2023/01/01 09:48:38;;;;;;;20.17;3.05;;;11.40;99.90;;;;;;4899915;29;20051;-87
2023/01/01 09:51:06;;;;;;;11.73;1.90;;;11.40;99.90;;;;;;4897954;29;20043;-91
2023/01/01 09:53:58;;;;;;;14.85;2.45;;;11.40;99.90;;;;;;4888022;29;20036;-90
2023/01/01 09:56:29;;;;;;;14.45;2.58;;;11.40;99.90;;;;;;4887186;29;20568;-89
2023/01/01 09:58:58;;;;;;;11.05;2.45;;;11.50;99.90;;;;;;4909626;29;20036;-89
2023/01/01 10:01:53;;;;;;;17.65;2.80;;;11.50;99.90;;;;;;4885656;29;20044;-89
2023/01/01 10:04:50;;;;;;;13.13;1.92;;;11.70;99.90;;;;;;4890232;29;20126;-90
2023/01/01 10:07:34;;;;;;;15.95;2.30;;;11.80;99.90;;;;;;4887460;29;20048;-88
2023/01/01 10:10:21;;;;;;;17.52;2.28;;;11.80;99.90;;;;;;4886566;29;20047;-89
2023/01/01 10:13:07;;;;;;;15.50;1.88;;;12.00;99.90;;;;;;4895647;29;20067;-89
2023/01/01 10:15:38;;;;;;;15.02;2.20;;;12.20;99.90;;;;;;4893134;29;20050;-89
2023/01/01 10:18:14;;;;;;;24.13;3.08;;;12.50;99.90;;;;;;4896315;29;20048;-89
2023/01/01 10:20:49;;;;;;;18.20;2.60;;;13.00;99.90;;;;;;4914225;29;20043;-89
2023/01/01 10:23:25;;;;;;;18.42;2.53;;;13.00;99.90;;;;;;4891451;29;20044;-89
2023/01/01 10:25:52;;;;;;;15.23;2.55;;;13.10;99.90;;;;;;4906625;29;20047;-89
2023/01/01 10:29:00;;;;;;;15.40;2.95;;;13.40;99.90;;;;;;4871055;29;20051;-88
2023/01/01 10:31:40;;;;;;;17.38;2.47;;;13.90;99.90;;;;;;4837973;29;20045;-89
2023/01/01 10:34:19;;;;;;;13.82;2.65;;;14.10;99.90;;;;;;4884513;29;20047;-90
2023/01/01 10:36:45;;;;;;;15.60;2.83;;;14.00;99.90;;;;;;4895923;29;20441;-89
2023/01/01 10:39:17;;;;;;;;;;;14.00;99.90;;;;;;4871270;29;20036;-89
2023/01/01 10:41:44;;;;;;;11.90;1.85;;;13.90;99.90;;;;;;4871242;29;19919;-89
2023/01/01 10:44:11;;;;;;;17.52;2.13;;;13.90;99.90;;;;;;4869659;29;20067;-89
2023/01/01 10:46:52;;;;;;;10.32;2.13;;;13.70;99.90;;;;;;4874085;29;20051;-89
2023/01/01 10:49:17;;;;;;;15.13;2.28;;;13.60;99.90;;;;;;4897296;29;20047;-88
2023/01/01 10:51:46;;;;;;;11.82;2.63;;;13.40;99.90;;;;;;4888420;29;20043;-89
2023/01/01 10:54:38;;;;;;;14.00;2.63;;;13.50;99.90;;;;;;4889824;29;20044;-89
2023/01/01 10:57:26;;;;;;;15.43;1.92;;;13.70;99.90;;;;;;4890326;29;20052;-90
2023/01/01 10:59:52;;;;;;;13.52;1.90;;;13.80;99.90;;;;;;4907789;29;20206;-87
2023/01/01 11:02:22;;;;;;;;;;;13.80;99.90;;;;;;4898294;29;20095;-88
2023/01/01 11:04:50;;;;;;;5.88;1.45;;;13.80;99.90;;;;;;4891857;29;19919;-88
2023/01/01 11:07:29;;;;;;;16.75;2.25;;;13.80;99.90;;;;;;4909628;29;20040;-88
2023/01/01 11:10:03;;;;;;;10.50;1.67;;;13.60;99.90;;;;;;4894856;29;20514;-89
2023/01/01 11:12:34;;;;;;;10.13;1.77;;;13.20;99.90;;;;;;4875858;29;20056;-88
2023/01/01 11:15:00;;;;;;;11.20;2.35;;;13.10;99.90;;;;;;4895812;29;20060;-88
2023/01/01 11:17:29;;;;;;;10.57;2.22;;;13.20;99.90;;;;;;4884036;29;20417;-89
2023/01/01 11:19:57;;;;;;;10.98;1.70;;;13.10;99.90;;;;;;4898717;29;20032;-88
2023/01/01 11:22:46;;;;;;;8.90;1.63;;;13.00;99.90;;;;;;4892660;29;20043;-89
2023/01/01 11:25:22;;;;;;;12.65;2.15;;;13.20;99.90;;;;;;4889871;29;20040;-88
2023/01/01 11:27:49;;;;;;;9.13;1.42;;;13.30;99.90;;;;;;4889862;29;20058;-89
2023/01/01 11:30:28;;;;;;;9.63;2.00;;;13.40;99.90;;;;;;4888942;29;20044;-88
2023/01/01 11:33:00;;;;;;;8.23;1.83;;;13.50;99.90;;;;;;4880991;29;20051;-89
2023/01/01 11:35:30;;;;;;;8.63;1.52;;;13.30;99.90;;;;;;4916482;29;20126;-89
2023/01/01 11:37:57;;;;;;;6.75;1.63;;;13.10;99.90;;;;;;4892503;29;20047;-89
2023/01/01 11:40:43;;;;;;;12.57;2.33;;;12.80;99.90;;;;;;4899605;29;20051;-88
2023/01/01 11:43:17;;;;;;;12.77;1.85;;;12.70;99.90;;;;;;4915523;29;20050;-88
2023/01/01 11:45:43;;;;;;;9.68;1.58;;;12.60;99.90;;;;;;4910986;29;20650;-88
2023/01/01 11:48:26;;;;;;;11.00;1.80;;;12.50;99.90;;;;;;4885119;29;20096;-88
2023/01/01 11:50:59;;;;;;;7.93;1.60;;;12.50;99.90;;;;;;4894324;29;20044;-88
2023/01/01 11:53:40;;;;;;;13.75;2.05;;;12.50;99.90;;;;;;4892850;29;20483;-88
2023/01/01 11:56:11;;;;;;;10.50;1.73;;;12.60;99.90;;;;;;4897507;29;20040;-88
2023/01/01 11:58:49;;;;;;;8.60;1.63;;;12.60;99.90;;;;;;4908642;29;20036;-88
2023/01/01 12:01:33;;;;;;;14.02;2.00;;;12.80;99.90;;;;;;4912391;29;20037;-87
2023/01/01 12:04:18;;;;;;;10.82;1.63;;;13.20;99.90;;;;;;4915791;29;20040;-88
2023/01/01 12:06:54;;;;;;;13.48;1.90;;;13.50;99.90;;;;;;4902384;29;20044;-87
2023/01/01 12:09:33;;;;;;;8.75;1.70;;;13.40;99.90;;;;;;4897107;29;20048;-88
2023/01/01 12:12:17;;;;;;;9.77;2.42;;;13.50;99.90;;;;;;4905770;29;20052;-87
2023/01/01 12:14:51;;;;;;;10.05;1.58;;;13.70;99.90;;;;;;4903514;29;20040;-87
2023/01/01 12:17:17;;;;;;;9.80;2.35;;;13.80;99.90;;;;;;4903134;29;20039;-87
2023/01/01 12:20:09;;;;;;;12.57;1.75;;;13.80;99.90;;;;;;4898824;29;20059;-88
2023/01/01 12:22:35;;;;;;;12.27;1.90;;;13.70;99.90;;;;;;4891551;29;20047;-87
2023/01/01 12:25:04;;;;;;;10.88;1.75;;;13.60;99.90;;;;;;4887300;29;20390;-88
2023/01/01 12:27:54;;;;;;;14.77;2.30;;;13.50;99.90;;;;;;4905325;29;20043;-88
2023/01/01 12:30:24;;;;;;;10.35;1.90;;;13.40;99.90;;;;;;4898041;29;20048;-88
2023/01/01 12:33:08;;;;;;;10.55;1.98;;;13.20;99.90;;;;;;4883276;29;20250;-88
2023/01/01 12:36:13;;;;;;;11.13;1.70;;;13.20;99.90;;;;;;4898324;29;20063;-88
2023/01/01 12:39:09;;;;;;;12.55;1.85;;;13.10;99.90;;;;;;4896137;29;20036;-88
2023/01/01 12:41:58;;;;;;;10.45;1.70;;;13.20;99.90;;;;;;4863786;29;20055;-87
2023/01/01 12:44:38;;;;;;;13.13;1.52;;;13.50;99.90;;;;;;4895560;29;20070;-88
2023/01/01 12:47:13;;;;;;;14.35;2.13;;;13.60;99.90;;;;;;4894842;29;20134;-88
2023/01/01 12:49:47;;;;;;;10.95;1.50;;;13.50;99.90;;;;;;4893761;29;20050;-88
2023/01/01 12:52:42;;;;;;;11.50;1.88;;;13.20;99.90;;;;;;4894053;29;20048;-88
2023/01/01 12:55:20;;;;;;;7.97;1.40;;;13.10;99.90;;;;;;4896496;29;20063;-88
2023/01/01 12:57:50;;;;;;;10.60;1.75;;;13.00;99.90;;;;;;4908719;29;20103;-88
2023/01/01 13:00:19;;;;;;;7.57;1.80;;;13.10;99.90;;;;;;4910494;29;20036;-88
2023/01/01 13:03:14;;;;;;;12.68;2.00;;;13.10;99.90;;;;;;4894355;29;20119;-88
2023/01/01 13:05:44;;;;;;;15.18;2.13;;;13.10;99.90;;;;;;4894235;29;20052;-88